Time;durP1;ratioP1;P1;durP2;ratioP2;P2;SDS_P1;SDS_P2;PMS_P1;PMS_P2;Temp;Humidity;BMP_temperature;BMP_pressure;BME280_temperature;BME280_humidity;BME280_pressure;Samples;Min_cycle;Max_cycle;Signal;HPM_P1;HPM_P2
2023/08/09 00:01:08;;;;;;;2.43;2.23;;;24.40;64.40;;;;;;4854531;29;20532;-83
2023/08/09 00:03:36;;;;;;;4.00;2.50;;;24.40;64.40;;;;;;4853807;29;20544;-83
2023/08/09 00:06:06;;;;;;;2.50;2.13;;;24.40;64.40;;;;;;4854660;29;20479;-84
2023/08/09 00:08:34;;;;;;;3.67;2.13;;;24.40;64.40;;;;;;4853534;29;20570;-82
2023/08/09 00:11:02;;;;;;;3.57;2.77;;;24.40;64.40;;;;;;4855939;29;20533;-84
2023/08/09 00:13:30;;;;;;;3.23;1.93;;;24.40;64.40;;;;;;4853621;29;20520;-83
2023/08/09 00:15:58;;;;;;;4.13;2.10;;;24.40;64.40;;;;;;4853029;29;20540;-83
2023/08/09 00:18:27;;;;;;;3.93;2.43;;;24.40;64.40;;;;;;4860600;29;20460;-83
2023/08/09 00:20:55;;;;;;;3.97;2.17;;;24.40;64.50;;;;;;4855050;29;20470;-83
2023/08/09 00:23:26;;;;;;;3.50;2.00;;;24.40;64.50;;;;;;4854792;29;20462;-83
2023/08/09 00:25:54;;;;;;;2.73;2.47;;;24.40;64.50;;;;;;4854939;29;20833;-83
2023/08/09 00:28:23;;;;;;;2.43;2.23;;;24.40;64.50;;;;;;4852945;29;20562;-83
2023/08/09 00:30:51;;;;;;;2.73;2.33;;;24.40;64.50;;;;;;4851550;29;20464;-82
2023/08/09 00:33:19;;;;;;;2.53;2.10;;;24.40;64.50;;;;;;4854490;29;20465;-82
2023/08/09 00:35:47;;;;;;;3.00;2.80;;;24.40;64.40;;;;;;4855895;29;20468;-83
2023/08/09 00:38:19;;;;;;;3.03;2.47;;;24.40;64.50;;;;;;4853823;29;20467;-83
2023/08/09 00:40:48;;;;;;;1.90;1.70;;;24.40;64.50;;;;;;4850188;29;20467;-83
2023/08/09 00:43:16;;;;;;;2.07;1.90;;;24.40;64.50;;;;;;4856031;29;20459;-83
2023/08/09 00:45:48;;;;;;;2.50;2.30;;;24.40;64.50;;;;;;4856523;29;20479;-82
2023/08/09 00:48:18;;;;;;;2.90;2.10;;;24.40;64.60;;;;;;4856513;29;20494;-83
2023/08/09 00:50:46;;;;;;;3.37;2.20;;;24.40;64.50;;;;;;4869706;29;21051;-82
2023/08/09 00:53:15;;;;;;;1.90;1.80;;;24.40;64.50;;;;;;4857231;29;20484;-82
2023/08/09 00:55:43;;;;;;;2.90;2.37;;;24.40;64.50;;;;;;4858660;29;20962;-83
2023/08/09 00:58:13;;;;;;;2.87;1.90;;;24.40;64.50;;;;;;4853997;29;20473;-82
2023/08/09 01:00:41;;;;;;;2.93;2.73;;;24.30;64.50;;;;;;4857278;29;20484;-83
2023/08/09 01:03:09;;;;;;;3.30;2.00;;;24.30;64.50;;;;;;4855648;29;20473;-82
2023/08/09 01:05:46;;;;;;;3.40;1.87;;;24.40;64.40;;;;;;4858489;29;20528;-82
2023/08/09 01:08:23;;;;;;;2.73;1.80;;;24.30;64.40;;;;;;4858830;29;20545;-83
2023/08/09 01:11:00;;;;;;;2.30;1.80;;;24.30;64.40;;;;;;4859566;29;20471;-83
2023/08/09 01:13:31;;;;;;;1.90;1.80;;;24.30;64.40;;;;;;4854393;29;20459;-83
2023/08/09 01:16:01;;;;;;;1.87;1.77;;;24.30;64.50;;;;;;4865120;29;20473;-83
2023/08/09 01:18:30;;;;;;;1.80;1.70;;;24.30;64.40;;;;;;4852264;29;20472;-82
2023/08/09 01:21:00;;;;;;;2.60;1.70;;;24.30;64.40;;;;;;4859088;29;20959;-82
2023/08/09 01:23:33;;;;;;;1.90;1.70;;;24.30;64.40;;;;;;4856595;29;20500;-83
2023/08/09 01:26:01;;;;;;;2.77;2.00;;;24.30;64.40;;;;;;4857430;29;20504;-83
2023/08/09 01:28:32;;;;;;;1.93;1.80;;;24.30;64.40;;;;;;4854636;29;20485;-85
2023/08/09 01:31:00;;;;;;;2.40;2.10;;;24.30;64.50;;;;;;4857970;29;20819;-82
2023/08/09 01:33:29;;;;;;;2.10;1.63;;;24.30;64.40;;;;;;4855509;29;21539;-83
2023/08/09 01:36:14;;;;;;;2.53;1.87;;;24.30;64.40;;;;;;4859770;29;20471;-83
2023/08/09 01:38:48;;;;;;;1.90;1.80;;;24.30;64.40;;;;;;4850403;29;20466;-82
2023/08/09 01:41:17;;;;;;;1.60;1.50;;;24.30;64.50;;;;;;4859078;29;20521;-82
2023/08/09 01:43:47;;;;;;;1.70;1.57;;;24.30;64.50;;;;;;4857197;29;20561;-84
2023/08/09 01:46:16;;;;;;;1.93;1.70;;;24.30;64.50;;;;;;4858344;29;20463;-83
2023/08/09 01:48:44;;;;;;;2.17;1.60;;;24.30;64.50;;;;;;4856712;29;20493;-82
2023/08/09 01:51:12;;;;;;;2.07;1.83;;;24.30;64.50;;;;;;4854826;29;20540;-83
2023/08/09 01:53:40;;;;;;;2.23;2.03;;;24.30;64.50;;;;;;4857201;29;20564;-83
2023/08/09 01:56:10;;;;;;;3.67;1.77;;;24.30;64.50;;;;;;4854345;29;20687;-82
2023/08/09 01:58:39;;;;;;;2.00;1.80;;;24.30;64.50;;;;;;4856700;29;20471;-83
2023/08/09 02:01:08;;;;;;;2.20;2.00;;;24.30;64.50;;;;;;4857987;29;20549;-83
2023/08/09 02:03:37;;;;;;;1.80;1.70;;;24.30;64.50;;;;;;4856041;29;20561;-84
2023/08/09 02:06:05;;;;;;;3.50;2.00;;;24.30;64.50;;;;;;4854769;29;20478;-83
2023/08/09 02:08:33;;;;;;;3.50;1.77;;;24.30;64.50;;;;;;4856083;29;20488;-83
2023/08/09 02:11:01;;;;;;;2.70;1.67;;;24.20;64.50;;;;;;4855437;29;20852;-82
2023/08/09 02:13:30;;;;;;;5.83;1.90;;;24.20;64.50;;;;;;4866723;29;20567;-82
2023/08/09 02:15:59;;;;;;;1.90;1.77;;;24.20;64.60;;;;;;4862191;29;20472;-83
2023/08/09 02:18:27;;;;;;;1.93;1.67;;;24.20;64.50;;;;;;4869779;29;20901;-82
2023/08/09 02:20:55;;;;;;;1.93;1.50;;;24.20;64.50;;;;;;4857233;29;21134;-85
2023/08/09 02:23:23;;;;;;;1.57;1.43;;;24.20;64.50;;;;;;4854834;29;20505;-84
2023/08/09 02:25:54;;;;;;;1.47;1.37;;;24.20;64.50;;;;;;4857569;29;21111;-82
2023/08/09 02:28:22;;;;;;;2.80;2.10;;;24.20;64.50;;;;;;4851830;29;20486;-83
2023/08/09 02:30:54;;;;;;;3.47;1.70;;;24.20;64.50;;;;;;4854873;29;20486;-84
2023/08/09 02:33:22;;;;;;;2.23;2.00;;;24.20;64.50;;;;;;4867955;29;20483;-83
2023/08/09 02:35:56;;;;;;;1.80;1.67;;;24.20;64.60;;;;;;4856207;29;20962;-83
2023/08/09 02:38:25;;;;;;;1.73;1.63;;;24.20;64.50;;;;;;4854952;29;20493;-83
2023/08/09 02:40:54;;;;;;;1.20;1.17;;;24.20;64.60;;;;;;4856290;29;20506;-82
2023/08/09 02:43:24;;;;;;;2.63;1.77;;;24.20;64.50;;;;;;4854197;29;20467;-82
2023/08/09 02:45:54;;;;;;;1.80;1.67;;;24.20;64.60;;;;;;4855909;29;20589;-83
2023/08/09 02:48:24;;;;;;;2.07;1.80;;;24.20;64.60;;;;;;4856365;29;20544;-83
2023/08/09 02:50:52;;;;;;;1.47;1.37;;;24.20;64.60;;;;;;4854250;29;20498;-82
2023/08/09 02:53:21;;;;;;;2.93;1.77;;;24.20;64.60;;;;;;4867546;29;20471;-83
2023/08/09 02:55:49;;;;;;;1.73;1.63;;;24.20;64.60;;;;;;4856142;29;20479;-82
2023/08/09 02:58:17;;;;;;;1.60;1.40;;;24.20;64.60;;;;;;4850918;29;20481;-83
2023/08/09 03:00:46;;;;;;;2.00;1.90;;;24.20;64.60;;;;;;4852854;29;20478;-83
2023/08/09 03:03:15;;;;;;;2.70;1.87;;;24.20;64.60;;;;;;4853856;29;20877;-82
2023/08/09 03:05:47;;;;;;;1.83;1.73;;;24.20;64.60;;;;;;4854737;29;20488;-83
2023/08/09 03:08:15;;;;;;;1.60;1.43;;;24.20;64.60;;;;;;4855253;29;20992;-83
2023/08/09 03:10:44;;;;;;;1.40;1.30;;;24.20;64.60;;;;;;4855629;29;20564;-82
2023/08/09 03:13:14;;;;;;;1.80;1.70;;;24.20;64.60;;;;;;4853455;29;20969;-83
2023/08/09 03:15:42;;;;;;;1.70;1.60;;;24.20;64.60;;;;;;4855381;29;20481;-82
2023/08/09 03:18:10;;;;;;;2.30;1.57;;;24.20;64.60;;;;;;4868690;29;21057;-84
2023/08/09 03:20:40;;;;;;;1.70;1.60;;;24.20;64.60;;;;;;4855187;29;20476;-82
2023/08/09 03:23:09;;;;;;;1.80;1.60;;;24.20;64.60;;;;;;4855163;29;21011;-83
2023/08/09 03:25:38;;;;;;;1.87;1.60;;;24.20;64.60;;;;;;4854543;29;20508;-83
2023/08/09 03:28:07;;;;;;;1.57;1.47;;;24.20;64.60;;;;;;4871132;29;20477;-83
2023/08/09 03:30:35;;;;;;;2.00;1.63;;;24.20;64.60;;;;;;4853173;29;20467;-83
2023/08/09 03:33:04;;;;;;;2.50;1.80;;;24.20;64.60;;;;;;4851108;29;20539;-83
2023/08/09 03:35:33;;;;;;;1.57;1.47;;;24.20;64.60;;;;;;4854908;29;20483;-82
2023/08/09 03:38:03;;;;;;;1.57;1.47;;;24.20;64.60;;;;;;4870032;29;20809;-82
2023/08/09 03:40:31;;;;;;;2.67;1.50;;;24.10;64.60;;;;;;4854948;29;20472;-82
2023/08/09 03:43:00;;;;;;;1.67;1.57;;;24.10;64.60;;;;;;4854486;29;20543;-84
2023/08/09 03:45:28;;;;;;;2.80;1.80;;;24.10;64.60;;;;;;4856281;29;20544;-82
2023/08/09 03:47:58;;;;;;;2.00;1.80;;;24.10;64.60;;;;;;4855343;29;20893;-82
2023/08/09 03:50:27;;;;;;;1.50;1.40;;;24.10;64.60;;;;;;4852531;29;20467;-85
2023/08/09 03:52:56;;;;;;;1.80;1.70;;;24.10;64.60;;;;;;4849862;29;20835;-82
2023/08/09 03:55:26;;;;;;;1.73;1.63;;;24.10;64.60;;;;;;4868693;29;20475;-82
2023/08/09 03:57:54;;;;;;;2.20;1.60;;;24.10;64.70;;;;;;4855288;29;20471;-83
2023/08/09 04:00:24;;;;;;;1.70;1.60;;;24.10;64.70;;;;;;4854527;29;20478;-82
2023/08/09 04:02:53;;;;;;;1.63;1.53;;;24.10;64.70;;;;;;4854886;29;21308;-82
2023/08/09 04:05:21;;;;;;;2.10;1.90;;;24.10;64.70;;;;;;4853692;29;20463;-83
2023/08/09 04:07:49;;;;;;;1.60;1.50;;;24.10;64.70;;;;;;4856262;29;20517;-82
2023/08/09 04:10:18;;;;;;;1.77;1.40;;;24.10;64.70;;;;;;4848103;29;20481;-82
2023/08/09 04:12:47;;;;;;;1.57;1.47;;;24.10;64.70;;;;;;4854502;29;20538;-82
2023/08/09 04:15:15;;;;;;;1.77;1.67;;;24.10;64.70;;;;;;4855456;29;20520;-83
2023/08/09 04:17:43;;;;;;;1.60;1.50;;;24.10;64.70;;;;;;4854592;29;20879;-83
2023/08/09 04:20:12;;;;;;;1.60;1.50;;;24.10;64.80;;;;;;4856620;29;20486;-83
2023/08/09 04:22:40;;;;;;;1.83;1.73;;;24.10;64.70;;;;;;4852259;29;20476;-83
2023/08/09 04:25:10;;;;;;;1.67;1.57;;;24.10;64.80;;;;;;4853157;29;20962;-85
2023/08/09 04:27:40;;;;;;;1.50;1.40;;;24.10;64.80;;;;;;4854625;29;20999;-83
2023/08/09 04:30:12;;;;;;;1.60;1.43;;;24.10;64.70;;;;;;4869247;29;20510;-83
2023/08/09 04:32:40;;;;;;;2.57;1.50;;;24.10;64.70;;;;;;4851916;29;20481;-84
2023/08/09 04:35:10;;;;;;;2.13;1.93;;;24.10;64.80;;;;;;4853760;29;20466;-83
2023/08/09 04:37:38;;;;;;;1.73;1.63;;;24.10;64.80;;;;;;4853933;29;20478;-83
2023/08/09 04:40:10;;;;;;;1.93;1.50;;;24.10;64.80;;;;;;4856000;29;20474;-84
2023/08/09 04:42:40;;;;;;;1.60;1.50;;;24.10;64.80;;;;;;4853678;29;21020;-82
2023/08/09 04:45:10;;;;;;;1.53;1.40;;;24.10;64.80;;;;;;4855366;29;20474;-82
2023/08/09 04:47:38;;;;;;;1.43;1.33;;;24.10;64.80;;;;;;4854603;29;20474;-83
2023/08/09 04:50:09;;;;;;;1.87;1.70;;;24.10;64.80;;;;;;4854900;29;20516;-84
2023/08/09 04:52:38;;;;;;;1.83;1.70;;;24.10;64.80;;;;;;4850363;29;20506;-83
2023/08/09 04:55:06;;;;;;;2.40;1.70;;;24.10;64.80;;;;;;4852991;29;20467;-82
2023/08/09 04:57:35;;;;;;;1.60;1.47;;;24.10;64.80;;;;;;4853458;29;20478;-83
2023/08/09 05:00:08;;;;;;;1.40;1.30;;;24.10;64.80;;;;;;4852488;29;20469;-84
2023/08/09 05:02:38;;;;;;;2.40;2.10;;;24.10;64.80;;;;;;4852536;29;20492;-83
2023/08/09 05:05:07;;;;;;;1.77;1.67;;;24.10;64.80;;;;;;4854876;29;20538;-83
2023/08/09 05:07:36;;;;;;;1.70;1.60;;;24.10;64.80;;;;;;4850722;29;20477;-82
2023/08/09 05:10:06;;;;;;;2.23;2.13;;;24.10;64.80;;;;;;4854660;29;20598;-82
2023/08/09 05:12:35;;;;;;;1.90;1.70;;;24.10;64.80;;;;;;4848449;29;20563;-82
2023/08/09 05:15:05;;;;;;;1.50;1.40;;;24.10;64.80;;;;;;4854595;29;20467;-83
2023/08/09 05:17:33;;;;;;;1.57;1.47;;;24.10;64.80;;;;;;4853713;29;20469;-83
2023/08/09 05:20:02;;;;;;;2.33;2.13;;;24.10;64.80;;;;;;4853141;29;20474;-82
2023/08/09 05:22:31;;;;;;;1.60;1.50;;;24.10;64.90;;;;;;4850338;29;20991;-83
2023/08/09 05:24:59;;;;;;;2.57;2.20;;;24.10;64.90;;;;;;4848151;29;20556;-84
2023/08/09 05:27:28;;;;;;;1.80;1.70;;;24.10;64.80;;;;;;4852557;29;20492;-85
2023/08/09 05:29:56;;;;;;;1.47;1.37;;;24.10;64.80;;;;;;4855023;29;20520;-82
2023/08/09 05:32:24;;;;;;;1.70;1.60;;;24.10;64.80;;;;;;4855577;29;20839;-82
2023/08/09 05:34:52;;;;;;;1.60;1.33;;;24.10;64.80;;;;;;4857345;29;20491;-83
2023/08/09 05:37:22;;;;;;;2.50;1.90;;;24.10;64.80;;;;;;4852583;29;21298;-83
2023/08/09 05:39:50;;;;;;;1.90;1.57;;;24.10;64.80;;;;;;4855454;29;20524;-83
2023/08/09 05:42:18;;;;;;;1.70;1.43;;;24.10;64.80;;;;;;4855173;29;20487;-86
2023/08/09 05:44:46;;;;;;;2.53;1.73;;;24.10;64.90;;;;;;4857280;29;20476;-85
2023/08/09 05:47:14;;;;;;;2.00;1.40;;;24.00;64.80;;;;;;4852438;29;20564;-83
2023/08/09 05:49:43;;;;;;;1.83;1.73;;;24.00;64.80;;;;;;4857096;29;20849;-83
2023/08/09 05:52:11;;;;;;;2.30;1.70;;;24.00;64.90;;;;;;4857293;29;21179;-82
2023/08/09 05:54:40;;;;;;;1.70;1.60;;;24.00;64.90;;;;;;4856440;29;20470;-86
2023/08/09 05:57:09;;;;;;;1.53;1.43;;;24.00;64.90;;;;;;4855346;29;20488;-83
2023/08/09 05:59:37;;;;;;;1.40;1.30;;;24.00;64.80;;;;;;4851889;29;20887;-83
2023/08/09 06:02:06;;;;;;;1.70;1.60;;;24.00;64.90;;;;;;4856796;29;20457;-83
2023/08/09 06:04:34;;;;;;;2.40;1.47;;;24.00;64.80;;;;;;4856139;29;20563;-82
2023/08/09 06:07:03;;;;;;;1.57;1.47;;;24.00;64.90;;;;;;4858250;29;20474;-84
2023/08/09 06:09:32;;;;;;;6.77;3.93;;;24.00;64.90;;;;;;4853582;29;20518;-83
2023/08/09 06:12:04;;;;;;;2.80;2.23;;;24.00;66.50;;;;;;4853537;29;21035;-84
2023/08/09 06:14:33;;;;;;;2.70;2.10;;;24.00;65.70;;;;;;4852742;29;20565;-84
2023/08/09 06:17:01;;;;;;;2.93;2.20;;;24.00;65.50;;;;;;4852164;29;20476;-83
2023/08/09 06:19:30;;;;;;;2.60;2.40;;;24.00;65.70;;;;;;4854811;29;20466;-83
2023/08/09 06:21:58;;;;;;;3.77;2.20;;;24.00;65.70;;;;;;4854486;29;21105;-83
2023/08/09 06:24:27;;;;;;;2.47;2.27;;;24.00;65.70;;;;;;4854563;29;20511;-83
2023/08/09 06:26:55;;;;;;;3.90;2.53;;;24.00;65.60;;;;;;4856113;29;20491;-84
2023/08/09 06:29:24;;;;;;;4.90;2.50;;;24.00;65.60;;;;;;4852932;29;20475;-83
2023/08/09 06:31:53;;;;;;;4.00;2.50;;;24.00;65.70;;;;;;4856958;29;20487;-82
2023/08/09 06:34:21;;;;;;;3.17;2.33;;;24.00;65.80;;;;;;4855743;29;20477;-83
2023/08/09 06:36:49;;;;;;;4.33;2.33;;;24.00;65.90;;;;;;4857658;29;20531;-85
2023/08/09 06:39:17;;;;;;;6.10;3.00;;;24.00;66.00;;;;;;4853529;29;20518;-83
2023/08/09 06:41:46;;;;;;;8.23;3.30;;;24.10;66.00;;;;;;4856157;29;20472;-83
2023/08/09 06:44:15;;;;;;;4.23;2.90;;;24.00;66.10;;;;;;4854444;29;21012;-83
2023/08/09 06:46:45;;;;;;;7.70;2.97;;;24.10;66.20;;;;;;4856721;29;20468;-83
2023/08/09 06:49:13;;;;;;;4.03;3.00;;;24.10;66.30;;;;;;4853710;29;20476;-82
2023/08/09 06:51:42;;;;;;;5.77;3.07;;;24.10;66.30;;;;;;4856366;29;20538;-83
2023/08/09 06:54:10;;;;;;;4.10;2.00;;;24.10;66.40;;;;;;4854084;29;20838;-83
2023/08/09 06:56:38;;;;;;;5.00;3.40;;;24.10;66.40;;;;;;4855821;29;20467;-82
2023/08/09 06:59:07;;;;;;;4.27;2.50;;;24.10;66.40;;;;;;4857207;29;20473;-86
2023/08/09 07:01:35;;;;;;;4.77;2.90;;;24.10;66.40;;;;;;4849527;29;20473;-83
2023/08/09 07:04:06;;;;;;;6.57;2.70;;;24.10;66.50;;;;;;4857486;29;20477;-84
2023/08/09 07:06:34;;;;;;;4.60;3.10;;;24.10;66.50;;;;;;4856404;29;20498;-84
2023/08/09 07:09:03;;;;;;;5.37;2.43;;;24.10;66.40;;;;;;4853955;29;21060;-84
2023/08/09 07:11:32;;;;;;;5.43;2.67;;;24.10;66.40;;;;;;4853316;29;20484;-84
2023/08/09 07:14:00;;;;;;;7.73;2.53;;;24.10;66.40;;;;;;4859184;29;20499;-85
2023/08/09 07:16:29;;;;;;;6.23;2.93;;;24.10;66.40;;;;;;4859601;29;20482;-84
2023/08/09 07:18:57;;;;;;;3.90;2.13;;;24.10;66.30;;;;;;4856949;29;20474;-85
2023/08/09 07:21:28;;;;;;;3.97;2.93;;;24.10;66.30;;;;;;4858699;29;20493;-83
2023/08/09 07:23:56;;;;;;;3.13;2.40;;;24.10;66.20;;;;;;4852343;29;20812;-84
2023/08/09 07:26:27;;;;;;;3.27;2.60;;;24.10;66.20;;;;;;4857597;29;20507;-83
2023/08/09 07:28:55;;;;;;;2.47;2.00;;;24.10;66.10;;;;;;4862326;29;20464;-84
2023/08/09 07:31:24;;;;;;;4.53;2.20;;;24.10;66.00;;;;;;4855324;29;20507;-84
2023/08/09 07:33:53;;;;;;;3.43;2.20;;;24.20;66.00;;;;;;4856201;29;20932;-84
2023/08/09 07:36:21;;;;;;;2.33;1.93;;;24.20;66.00;;;;;;4857075;29;20467;-83
2023/08/09 07:38:51;;;;;;;2.73;2.20;;;24.20;66.00;;;;;;4856118;29;20502;-87
2023/08/09 07:41:20;;;;;;;3.60;2.53;;;24.20;66.00;;;;;;4856901;29;20473;-83
2023/08/09 07:43:49;;;;;;;4.77;2.07;;;24.10;66.50;;;;;;4849512;29;20478;-82
2023/08/09 07:46:17;;;;;;;6.53;2.67;;;24.10;66.80;;;;;;4854864;29;20473;-86
2023/08/09 07:48:46;;;;;;;4.17;2.50;;;24.10;66.90;;;;;;4861991;29;20472;-83
2023/08/09 07:51:14;;;;;;;3.07;2.40;;;24.10;66.90;;;;;;4857480;29;20522;-83
2023/08/09 07:53:43;;;;;;;8.23;2.90;;;24.20;66.90;;;;;;4852932;29;20553;-84
2023/08/09 07:56:15;;;;;;;3.50;2.20;;;24.20;66.90;;;;;;4852458;29;20537;-82
2023/08/09 07:58:43;;;;;;;5.23;2.10;;;24.20;66.90;;;;;;4854577;29;20474;-85
2023/08/09 08:01:11;;;;;;;6.13;2.17;;;24.20;67.00;;;;;;4855265;29;20473;-84
2023/08/09 08:03:40;;;;;;;4.60;2.27;;;24.20;67.00;;;;;;4859151;29;20472;-84
2023/08/09 08:06:08;;;;;;;6.33;2.33;;;24.20;66.90;;;;;;4856993;29;20553;-86
2023/08/09 08:08:36;;;;;;;3.30;2.27;;;24.20;67.40;;;;;;4857226;29;20471;-85
2023/08/09 08:11:04;;;;;;;3.00;2.30;;;24.30;67.60;;;;;;4857045;29;20524;-86
2023/08/09 08:13:34;;;;;;;2.30;2.10;;;24.30;67.80;;;;;;4856290;29;20479;-86
2023/08/09 08:16:04;;;;;;;2.43;2.10;;;24.30;68.00;;;;;;4858141;29;20470;-84
2023/08/09 08:18:32;;;;;;;3.20;1.87;;;24.30;68.20;;;;;;4853158;29;20473;-86
2023/08/09 08:21:03;;;;;;;4.60;2.43;;;24.40;68.30;;;;;;4859119;29;20481;-84
2023/08/09 08:23:32;;;;;;;2.40;2.07;;;24.40;68.40;;;;;;4855572;29;20480;-83
2023/08/09 08:26:00;;;;;;;3.57;2.17;;;24.40;68.50;;;;;;4857307;29;20582;-84
2023/08/09 08:28:30;;;;;;;2.80;2.60;;;24.40;68.50;;;;;;4853407;29;20464;-85
2023/08/09 08:31:04;;;;;;;2.13;1.93;;;24.40;68.80;;;;;;4855129;29;20980;-87
2023/08/09 08:33:32;;;;;;;5.20;2.70;;;24.40;68.70;;;;;;4856240;29;20961;-84
2023/08/09 08:36:01;;;;;;;2.77;1.77;;;24.40;68.40;;;;;;4844109;29;20466;-85
2023/08/09 08:38:50;;;;;;;3.63;2.40;;;24.40;68.20;;;;;;4858214;29;20487;-85
2023/08/09 08:41:18;;;;;;;4.70;2.00;;;24.40;67.90;;;;;;4858706;29;20840;-85
2023/08/09 08:43:47;;;;;;;3.53;2.30;;;24.40;67.70;;;;;;4854678;29;20505;-85
2023/08/09 08:46:17;;;;;;;4.47;1.97;;;24.40;67.60;;;;;;4857142;29;20461;-86
2023/08/09 08:48:48;;;;;;;2.47;2.27;;;24.50;67.60;;;;;;4852582;29;20548;-85
2023/08/09 08:51:18;;;;;;;3.27;2.30;;;24.50;67.70;;;;;;4855182;29;20486;-85
2023/08/09 08:53:47;;;;;;;3.50;1.97;;;24.50;68.00;;;;;;4858578;29;20468;-86
2023/08/09 08:56:16;;;;;;;3.90;2.50;;;24.50;68.10;;;;;;4857250;29;20531;-85
2023/08/09 08:58:44;;;;;;;2.57;2.37;;;24.50;67.90;;;;;;4852839;29;20535;-84
2023/08/09 09:01:13;;;;;;;4.83;2.53;;;24.50;68.00;;;;;;4853668;29;20555;-83
2023/08/09 09:03:42;;;;;;;5.67;2.90;;;24.50;68.10;;;;;;4856214;29;20474;-84
2023/08/09 09:06:11;;;;;;;3.63;2.30;;;24.50;68.10;;;;;;4857555;29;20483;-85
2023/08/09 09:08:42;;;;;;;3.70;2.33;;;24.50;68.10;;;;;;4858608;29;20498;-85
2023/08/09 09:11:18;;;;;;;5.77;2.07;;;24.50;68.20;;;;;;4856244;29;20572;-85
2023/08/09 09:13:48;;;;;;;2.13;1.93;;;24.60;68.10;;;;;;4862382;29;20529;-86
2023/08/09 09:16:17;;;;;;;3.50;2.53;;;24.60;68.10;;;;;;4861693;29;20493;-84
2023/08/09 09:18:48;;;;;;;6.57;2.00;;;24.60;68.30;;;;;;4856171;29;20475;-86
2023/08/09 09:21:18;;;;;;;3.00;2.27;;;24.60;68.30;;;;;;4859918;29;20470;-84
2023/08/09 09:23:46;;;;;;;3.10;2.07;;;24.60;68.20;;;;;;4860316;29;20967;-87
2023/08/09 09:26:16;;;;;;;4.93;2.70;;;24.60;68.20;;;;;;4858006;29;20496;-84
2023/08/09 09:28:47;;;;;;;7.30;2.43;;;24.60;68.20;;;;;;4855343;29;21029;-84
2023/08/09 09:31:17;;;;;;;4.23;2.20;;;24.70;68.10;;;;;;4856579;29;20496;-83
2023/08/09 09:33:49;;;;;;;3.27;2.03;;;24.70;68.00;;;;;;4853325;29;21367;-84
2023/08/09 09:36:17;;;;;;;3.80;2.43;;;24.70;68.10;;;;;;4858093;29;20984;-86
2023/08/09 09:38:52;;;;;;;4.47;1.90;;;24.70;68.10;;;;;;4855198;29;20465;-85
2023/08/09 09:41:20;;;;;;;5.37;2.33;;;24.70;68.00;;;;;;4857103;29;21344;-85
2023/08/09 09:43:50;;;;;;;3.23;2.60;;;24.70;68.00;;;;;;4853322;29;20465;-86
2023/08/09 09:46:20;;;;;;;3.00;2.47;;;24.70;67.90;;;;;;4855371;29;20472;-84
2023/08/09 09:49:06;;;;;;;4.60;2.50;;;24.80;67.90;;;;;;4854771;29;21003;-84
2023/08/09 09:51:36;;;;;;;2.70;2.00;;;24.80;67.80;;;;;;4855830;29;20903;-84
2023/08/09 09:54:06;;;;;;;7.03;2.77;;;24.80;67.80;;;;;;4856358;29;20533;-85
2023/08/09 09:56:35;;;;;;;2.10;1.90;;;24.80;67.80;;;;;;4855232;29;20560;-85
2023/08/09 09:59:04;;;;;;;4.20;2.03;;;24.90;67.70;;;;;;4854418;29;20468;-85
2023/08/09 10:01:36;;;;;;;5.23;2.53;;;24.90;67.70;;;;;;4858012;29;20473;-85
2023/08/09 10:04:11;;;;;;;7.33;2.63;;;24.90;67.70;;;;;;4857731;29;21016;-83
2023/08/09 10:06:42;;;;;;;1.87;1.77;;;24.90;67.60;;;;;;4856453;29;20463;-85
2023/08/09 10:09:13;;;;;;;2.47;2.10;;;24.90;67.40;;;;;;4853812;29;20486;-82
2023/08/09 10:11:44;;;;;;;3.63;2.20;;;24.90;67.40;;;;;;4856571;29;20600;-83
2023/08/09 10:14:15;;;;;;;4.00;2.10;;;24.90;67.30;;;;;;4853645;29;20555;-82
2023/08/09 10:16:44;;;;;;;6.90;2.70;;;24.90;67.40;;;;;;4853436;29;20599;-85
2023/08/09 10:19:19;;;;;;;2.90;2.60;;;24.90;67.40;;;;;;4856006;29;20481;-83
2023/08/09 10:21:48;;;;;;;4.83;2.00;;;24.90;67.40;;;;;;4855359;29;20469;-84
2023/08/09 10:24:18;;;;;;;4.43;2.30;;;24.80;67.30;;;;;;4858477;29;20458;-83
2023/08/09 10:26:49;;;;;;;4.20;2.23;;;24.80;67.30;;;;;;4859725;29;20493;-83
2023/08/09 10:29:21;;;;;;;3.13;2.23;;;24.80;67.30;;;;;;4856469;29;21033;-83
2023/08/09 10:31:52;;;;;;;2.93;2.37;;;24.80;67.10;;;;;;4851621;29;20464;-85
2023/08/09 10:34:32;;;;;;;2.87;2.13;;;24.80;67.10;;;;;;4856960;29;20542;-82
2023/08/09 10:37:01;;;;;;;3.23;2.30;;;24.80;66.90;;;;;;4854097;29;20539;-84
2023/08/09 10:39:30;;;;;;;3.93;1.80;;;24.80;66.80;;;;;;4855778;29;20469;-82
2023/08/09 10:42:01;;;;;;;2.97;2.00;;;24.80;66.80;;;;;;4851558;29;20492;-82
2023/08/09 10:44:42;;;;;;;8.30;2.50;;;24.80;67.00;;;;;;4854695;29;20815;-83
2023/08/09 10:47:13;;;;;;;2.83;2.63;;;24.80;67.10;;;;;;4856436;29;20475;-84
2023/08/09 10:50:06;;;;;;;3.57;2.10;;;24.80;67.10;;;;;;4858175;29;21045;-82
2023/08/09 10:52:36;;;;;;;3.70;2.03;;;24.80;67.10;;;;;;4854806;29;20964;-83
2023/08/09 10:55:28;;;;;;;4.37;2.73;;;24.80;67.10;;;;;;4854702;29;20522;-82
2023/08/09 10:57:59;;;;;;;5.47;2.83;;;24.80;67.10;;;;;;4852395;29;20805;-83
2023/08/09 11:00:29;;;;;;;7.43;2.30;;;24.70;67.10;;;;;;4855370;29;20469;-83
2023/08/09 11:02:59;;;;;;;2.20;1.83;;;24.70;67.10;;;;;;4854501;29;20468;-83
2023/08/09 11:05:29;;;;;;;2.30;2.10;;;24.80;67.00;;;;;;4855810;29;20566;-83
2023/08/09 11:08:00;;;;;;;3.67;1.77;;;24.80;67.00;;;;;;4856150;29;20965;-82
2023/08/09 11:10:33;;;;;;;2.63;2.20;;;24.80;67.00;;;;;;4854423;29;20493;-82
2023/08/09 11:13:08;;;;;;;3.33;2.13;;;24.80;66.90;;;;;;4855030;29;20483;-82
2023/08/09 11:15:38;;;;;;;4.47;2.20;;;24.80;66.90;;;;;;4856589;29;20465;-82
2023/08/09 11:18:06;;;;;;;4.07;1.90;;;24.80;66.90;;;;;;4852571;29;20537;-82
2023/08/09 11:20:36;;;;;;;15.70;2.87;;;24.80;66.90;;;;;;4856321;29;20537;-83
2023/08/09 11:23:04;;;;;;;3.20;2.30;;;24.80;66.80;;;;;;4856829;29;20470;-82
2023/08/09 11:25:34;;;;;;;4.10;2.30;;;24.80;66.80;;;;;;4856018;29;20728;-85
2023/08/09 11:28:04;;;;;;;4.83;2.90;;;24.80;66.70;;;;;;4853009;29;20490;-83
2023/08/09 11:30:33;;;;;;;2.57;2.03;;;24.80;66.80;;;;;;4856401;29;20474;-82
2023/08/09 11:33:03;;;;;;;3.43;2.00;;;24.80;66.80;;;;;;4849011;29;20521;-83
2023/08/09 11:35:39;;;;;;;3.70;2.10;;;24.80;66.90;;;;;;4856058;29;20465;-82
2023/08/09 11:38:10;;;;;;;5.17;2.47;;;24.70;67.10;;;;;;4860019;29;20476;-83
2023/08/09 11:40:43;;;;;;;4.93;2.30;;;24.70;67.30;;;;;;4853890;29;20467;-83
2023/08/09 11:43:13;;;;;;;3.87;2.37;;;24.70;67.40;;;;;;4852175;29;20477;-85
2023/08/09 11:45:52;;;;;;;4.07;2.87;;;24.80;67.40;;;;;;4858522;29;20512;-83
2023/08/09 11:48:29;;;;;;;6.70;2.13;;;24.80;67.40;;;;;;4855272;29;20892;-83
2023/08/09 11:51:08;;;;;;;9.63;2.00;;;24.80;67.30;;;;;;4870817;29;20483;-84
2023/08/09 11:53:38;;;;;;;5.30;2.53;;;24.90;67.20;;;;;;4857582;29;20487;-84
2023/08/09 11:56:08;;;;;;;3.70;3.00;;;24.90;67.20;;;;;;4857731;29;20484;-84
2023/08/09 11:58:37;;;;;;;5.80;2.47;;;24.90;67.20;;;;;;4859769;29;20490;-84
2023/08/09 12:01:16;;;;;;;4.90;2.20;;;25.00;67.10;;;;;;4860467;29;21007;-83
2023/08/09 12:03:45;;;;;;;8.70;2.30;;;25.10;67.10;;;;;;4856327;29;20473;-84
2023/08/09 12:06:15;;;;;;;3.40;2.10;;;25.10;66.80;;;;;;4856802;29;20525;-83
2023/08/09 12:08:44;;;;;;;9.27;2.00;;;25.20;66.70;;;;;;4856753;29;20478;-84
2023/08/09 12:11:16;;;;;;;3.07;1.70;;;25.20;66.70;;;;;;4860082;29;20498;-83
2023/08/09 12:13:44;;;;;;;3.30;2.00;;;25.20;66.70;;;;;;4858313;29;20490;-83
2023/08/09 12:16:13;;;;;;;4.70;2.10;;;25.20;66.50;;;;;;4860149;29;20538;-83
2023/08/09 12:18:41;;;;;;;3.40;1.90;;;25.30;66.50;;;;;;4855913;29;20466;-84
2023/08/09 12:21:09;;;;;;;4.50;2.00;;;25.30;66.40;;;;;;4856869;29;20466;-85
2023/08/09 12:23:39;;;;;;;9.33;2.47;;;25.40;66.40;;;;;;4859149;29;20466;-83
2023/08/09 12:26:08;;;;;;;1.53;1.43;;;25.40;66.40;;;;;;4854543;29;20555;-83
2023/08/09 12:28:37;;;;;;;4.80;2.20;;;25.50;66.20;;;;;;4860565;29;20557;-83
2023/08/09 12:31:06;;;;;;;2.43;1.63;;;25.50;66.10;;;;;;4855267;29;20474;-86
2023/08/09 12:33:34;;;;;;;4.70;1.97;;;25.50;65.90;;;;;;4858267;29;20491;-83
2023/08/09 12:36:03;;;;;;;3.30;1.83;;;25.60;65.90;;;;;;4856100;29;20482;-84
2023/08/09 12:38:31;;;;;;;3.30;1.93;;;25.60;65.80;;;;;;4857160;29;20571;-84
2023/08/09 12:41:00;;;;;;;2.70;2.13;;;25.70;65.80;;;;;;4855692;29;20477;-83
2023/08/09 12:43:28;;;;;;;3.00;2.10;;;25.70;65.80;;;;;;4859076;29;20476;-83
2023/08/09 12:45:57;;;;;;;8.70;2.30;;;25.70;65.80;;;;;;4856571;29;20475;-83
2023/08/09 12:48:25;;;;;;;4.23;2.30;;;25.70;65.80;;;;;;4858665;29;20474;-84
2023/08/09 12:50:53;;;;;;;3.67;2.00;;;25.70;65.60;;;;;;4862262;29;20584;-83
2023/08/09 12:53:21;;;;;;;4.47;3.00;;;25.70;65.70;;;;;;4854369;29;20627;-85
2023/08/09 12:55:50;;;;;;;3.77;2.20;;;25.70;65.70;;;;;;4860069;29;20562;-86
2023/08/09 12:58:19;;;;;;;3.07;2.00;;;25.70;65.70;;;;;;4855192;29;20485;-84
2023/08/09 13:00:47;;;;;;;2.80;1.47;;;25.70;65.60;;;;;;4857654;29;21038;-83